createdAt,value
2023-03-04T00:00:14.553Z,48.90
2023-03-04T00:02:42.724Z,42.63
2023-03-04T00:05:11.148Z,43.25
2023-03-04T00:07:39.367Z,40.03
2023-03-04T00:10:08.500Z,39.05
2023-03-04T00:12:38.005Z,36.80
2023-03-04T00:15:07.528Z,37.30
2023-03-04T00:17:35.850Z,43.45
2023-03-04T00:20:04.132Z,44.80
2023-03-04T00:22:32.380Z,35.45
2023-03-04T00:25:00.491Z,34.38
2023-03-04T00:27:28.822Z,32.00
2023-03-04T00:29:58.633Z,40.05
2023-03-04T00:32:26.859Z,32.13
2023-03-04T00:34:55.018Z,25.70
2023-03-04T00:37:23.192Z,29.25
2023-03-04T00:39:51.826Z,28.25
2023-03-04T00:42:19.946Z,30.48
2023-03-04T00:44:49.684Z,37.60
2023-03-04T00:47:19.268Z,35.75
2023-03-04T00:49:47.360Z,40.22
2023-03-04T00:52:15.578Z,34.38
2023-03-04T00:54:43.895Z,34.42
2023-03-04T00:57:12.031Z,41.22
2023-03-04T00:59:40.840Z,37.75
2023-03-04T01:02:09.069Z,33.13
2023-03-04T01:04:39.041Z,39.30
2023-03-04T01:07:07.347Z,29.95
2023-03-04T01:09:35.474Z,32.95
2023-03-04T01:12:04.269Z,33.13
2023-03-04T01:14:32.508Z,37.60
2023-03-04T01:17:00.748Z,34.58
2023-03-04T01:19:29.070Z,38.10
2023-03-04T01:21:58.813Z,37.15
2023-03-04T01:24:27.022Z,28.80
2023-03-04T01:26:55.321Z,24.45
2023-03-04T01:29:24.254Z,25.33
2023-03-04T01:31:52.450Z,28.90
2023-03-04T01:34:21.775Z,31.60
2023-03-04T01:36:49.975Z,40.53
2023-03-04T01:39:21.754Z,36.95
2023-03-04T01:41:50.200Z,30.08
2023-03-04T01:44:18.805Z,23.98
2023-03-04T01:46:51.414Z,25.40
2023-03-04T01:49:20.232Z,27.15
2023-03-04T01:51:52.265Z,24.58
2023-03-04T01:54:23.778Z,24.52
2023-03-04T01:56:53.572Z,28.13
2023-03-04T01:59:24.678Z,29.85
2023-03-04T02:01:55.411Z,38.33
2023-03-04T02:04:26.115Z,40.50
2023-03-04T02:06:55.117Z,42.80
2023-03-04T02:09:24.918Z,40.28
2023-03-04T02:11:54.041Z,38.15
2023-03-04T02:14:23.049Z,35.10
2023-03-04T02:16:51.703Z,36.08
2023-03-04T02:19:28.026Z,37.75
2023-03-04T02:21:58.304Z,33.13
2023-03-04T02:24:32.743Z,36.67
2023-03-04T02:27:02.403Z,31.38
2023-03-04T02:29:30.792Z,29.55
2023-03-04T02:31:59.428Z,28.73
2023-03-04T02:34:31.555Z,28.48
2023-03-04T02:37:01.108Z,25.13
2023-03-04T02:39:34.267Z,30.88
2023-03-04T02:42:05.026Z,34.50
2023-03-04T02:44:37.109Z,33.75
2023-03-04T02:47:09.008Z,34.42
2023-03-04T02:49:39.138Z,30.65
2023-03-04T02:52:09.298Z,32.80
2023-03-04T02:54:39.444Z,37.35
2023-03-04T02:57:11.033Z,36.83
2023-03-04T02:59:42.835Z,33.50
2023-03-04T03:02:15.689Z,33.70
2023-03-04T03:04:44.193Z,38.78
2023-03-04T03:07:15.190Z,36.17
2023-03-04T03:09:43.575Z,35.30
2023-03-04T03:12:13.508Z,29.85
2023-03-04T03:14:41.941Z,32.33
2023-03-04T03:17:12.917Z,35.63
2023-03-04T03:19:41.168Z,36.65
2023-03-04T03:22:11.340Z,36.45
2023-03-04T03:24:39.550Z,35.60
2023-03-04T03:27:07.795Z,38.15
2023-03-04T03:29:37.637Z,38.65
2023-03-04T03:32:08.933Z,34.38
2023-03-04T03:34:37.122Z,39.88
2023-03-04T03:37:05.432Z,35.92
2023-03-04T03:39:33.626Z,37.28
2023-03-04T03:42:01.722Z,42.08
2023-03-04T03:44:29.949Z,41.20
2023-03-04T03:46:59.758Z,40.75
2023-03-04T03:49:28.186Z,44.63
2023-03-04T03:51:56.700Z,40.70
2023-03-04T03:54:24.842Z,38.30
2023-03-04T03:56:52.846Z,32.38
2023-03-04T03:59:21.326Z,30.08
2023-03-04T04:01:49.567Z,25.65
2023-03-04T04:04:19.233Z,33.22
2023-03-04T04:06:47.610Z,37.33
2023-03-04T04:09:15.815Z,24.48
2023-03-04T04:11:43.972Z,24.73
2023-03-04T04:14:14.008Z,33.63
2023-03-04T04:16:42.703Z,24.98
2023-03-04T04:19:17.286Z,27.83
2023-03-04T04:21:47.023Z,24.85
2023-03-04T04:24:15.278Z,27.02
2023-03-04T04:26:43.861Z,30.85
2023-03-04T04:29:15.522Z,26.88
2023-03-04T04:31:43.747Z,25.88
2023-03-04T04:34:11.971Z,25.38
2023-03-04T04:36:40.046Z,25.38
2023-03-04T04:39:09.681Z,23.20
2023-03-04T04:41:40.041Z,20.05
2023-03-04T04:44:08.676Z,20.40
2023-03-04T04:46:37.299Z,21.65
2023-03-04T04:49:06.352Z,22.67
2023-03-04T04:51:35.171Z,22.25
2023-03-04T04:54:04.263Z,25.67
2023-03-04T04:56:34.560Z,21.38
2023-03-04T04:59:05.839Z,25.13
2023-03-04T05:01:34.033Z,23.58
2023-03-04T05:04:02.229Z,20.55
2023-03-04T05:06:30.500Z,21.67
2023-03-04T05:08:58.642Z,18.40
2023-03-04T05:11:26.877Z,23.48
2023-03-04T05:13:56.415Z,22.50
2023-03-04T05:16:24.879Z,21.63
2023-03-04T05:18:53.007Z,23.45
2023-03-04T05:21:21.266Z,24.75
2023-03-04T05:23:49.395Z,22.65
2023-03-04T05:26:19.028Z,21.90
2023-03-04T05:28:47.558Z,22.17
2023-03-04T05:31:17.875Z,22.88
2023-03-04T05:33:46.129Z,25.75
2023-03-04T05:36:14.252Z,21.75
2023-03-04T05:38:42.366Z,21.63
2023-03-04T05:41:10.639Z,21.80
2023-03-04T05:43:42.886Z,19.15
2023-03-04T05:46:16.864Z,20.75
2023-03-04T05:48:45.999Z,22.10
2023-03-04T05:51:14.160Z,18.50
2023-03-04T05:53:42.994Z,20.67
2023-03-04T05:56:12.775Z,23.52
2023-03-04T05:58:40.886Z,20.35
2023-03-04T06:01:09.365Z,23.30
2023-03-04T06:03:38.959Z,22.15
2023-03-04T06:06:07.571Z,23.02
2023-03-04T06:08:35.678Z,20.23
2023-03-04T06:11:05.579Z,22.35
2023-03-04T06:13:34.014Z,16.85
2023-03-04T06:16:02.292Z,25.38
2023-03-04T06:18:31.025Z,22.05
2023-03-04T06:21:02.434Z,27.60
2023-03-04T06:23:31.851Z,23.05
2023-03-04T06:26:01.685Z,25.88
2023-03-04T06:28:30.433Z,24.67
2023-03-04T06:30:59.430Z,25.58
2023-03-04T06:33:27.872Z,25.15
2023-03-04T06:35:57.886Z,23.88
2023-03-04T06:38:27.935Z,22.38
2023-03-04T06:40:57.589Z,29.88
2023-03-04T06:43:26.005Z,25.60
2023-03-04T06:45:54.302Z,25.95
2023-03-04T06:48:22.577Z,30.65
2023-03-04T06:50:50.983Z,33.08
2023-03-04T06:53:19.160Z,29.27
2023-03-04T06:55:49.620Z,30.25
2023-03-04T06:58:18.206Z,33.35
2023-03-04T07:00:46.525Z,28.48
2023-03-04T07:03:14.941Z,30.92
2023-03-04T07:05:44.120Z,31.33
2023-03-04T07:08:12.494Z,30.67
2023-03-04T07:10:40.724Z,35.28
2023-03-04T07:13:10.269Z,30.98
2023-03-04T07:15:38.900Z,38.72
2023-03-04T07:18:07.122Z,28.70
2023-03-04T07:20:35.502Z,28.40
2023-03-04T07:23:03.755Z,33.88
2023-03-04T07:25:31.900Z,33.00
2023-03-04T07:28:00.144Z,30.42
2023-03-04T07:30:29.876Z,36.70
2023-03-04T07:32:59.244Z,31.92
2023-03-04T07:35:27.541Z,28.15
2023-03-04T07:37:55.800Z,30.48
2023-03-04T07:40:24.178Z,26.20
2023-03-04T07:42:52.518Z,28.40
2023-03-04T07:45:21.424Z,33.72
2023-03-04T07:47:51.744Z,29.42
2023-03-04T07:50:20.445Z,28.58
2023-03-04T07:52:51.272Z,27.35
2023-03-04T07:55:19.889Z,27.42
2023-03-04T07:57:48.906Z,33.10
2023-03-04T08:00:18.696Z,28.50
2023-03-04T08:02:46.927Z,31.02
2023-03-04T08:05:16.722Z,26.25
2023-03-04T08:07:45.013Z,27.83
2023-03-04T08:10:13.236Z,29.08
2023-03-04T08:12:41.510Z,28.85
2023-03-04T08:15:10.663Z,31.75
2023-03-04T08:17:39.530Z,27.42
2023-03-04T08:20:08.810Z,26.92
2023-03-04T08:22:38.314Z,26.17
2023-03-04T08:25:07.026Z,25.33
2023-03-04T08:27:37.355Z,28.92
2023-03-04T08:30:05.994Z,26.92
2023-03-04T08:32:34.234Z,27.63
2023-03-04T08:35:02.881Z,25.35
2023-03-04T08:37:31.141Z,24.25
2023-03-04T08:40:00.517Z,25.67
2023-03-04T08:42:28.689Z,22.45
2023-03-04T08:44:56.696Z,24.77
2023-03-04T08:47:24.822Z,22.83
2023-03-04T08:49:53.051Z,26.98
2023-03-04T08:52:21.201Z,21.40
2023-03-04T08:54:49.337Z,22.60
2023-03-04T08:57:18.784Z,23.52
2023-03-04T08:59:46.872Z,27.00
2023-03-04T09:02:14.894Z,20.48
2023-03-04T09:04:43.055Z,19.90
2023-03-04T09:07:11.287Z,23.60
2023-03-04T09:09:39.379Z,20.27
2023-03-04T09:12:07.731Z,20.48
2023-03-04T09:14:37.250Z,20.77
2023-03-04T09:17:06.962Z,18.08
2023-03-04T09:19:35.114Z,18.45
2023-03-04T09:22:03.694Z,25.38
2023-03-04T09:24:32.645Z,26.02
2023-03-04T09:27:00.854Z,24.08
2023-03-04T09:29:28.907Z,21.35
2023-03-04T09:31:58.383Z,23.25
2023-03-04T09:34:26.460Z,21.88
2023-03-04T09:36:54.537Z,25.45
2023-03-04T09:39:22.584Z,20.88
2023-03-04T09:41:56.362Z,23.55
2023-03-04T09:44:27.209Z,23.05
2023-03-04T09:47:00.029Z,21.77
2023-03-04T09:49:28.838Z,22.00
2023-03-04T09:52:03.694Z,18.90
2023-03-04T09:54:51.819Z,20.98
2023-03-04T09:57:28.554Z,19.10
2023-03-04T10:00:07.906Z,19.85
2023-03-04T10:02:48.463Z,20.80
2023-03-04T10:05:20.694Z,20.80
2023-03-04T10:07:57.237Z,21.00
2023-03-04T10:10:29.379Z,17.63
2023-03-04T10:12:59.122Z,16.63
2023-03-04T10:15:35.113Z,23.83
2023-03-04T10:18:12.918Z,18.83
2023-03-04T10:20:53.740Z,19.15
2023-03-04T10:23:25.508Z,19.88
2023-03-04T10:25:54.860Z,15.43
2023-03-04T10:28:26.581Z,15.05
2023-03-04T10:31:00.811Z,15.82
2023-03-04T10:33:32.186Z,18.25
2023-03-04T10:36:03.882Z,14.90
2023-03-04T10:38:34.404Z,15.85
2023-03-04T10:41:03.163Z,14.90
2023-03-04T10:43:31.208Z,15.43
2023-03-04T10:46:01.382Z,15.32
2023-03-04T10:48:32.698Z,18.75
2023-03-04T10:51:14.706Z,14.50
2023-03-04T10:53:44.202Z,12.18
2023-03-04T10:56:32.551Z,12.88
2023-03-04T10:59:31.456Z,14.73
2023-03-04T11:02:00.010Z,14.05
2023-03-04T11:04:34.913Z,13.60
2023-03-04T11:07:03.532Z,15.43
2023-03-04T11:09:33.194Z,15.38
2023-03-04T11:12:02.417Z,14.65
2023-03-04T11:14:37.385Z,14.38
2023-03-04T11:17:22.039Z,12.60
2023-03-04T11:19:55.462Z,13.30
2023-03-04T11:22:25.205Z,13.70
2023-03-04T11:25:04.415Z,14.18
2023-03-04T11:27:41.433Z,15.88
2023-03-04T11:30:26.956Z,14.50
2023-03-04T11:33:01.959Z,14.65
2023-03-04T11:35:36.305Z,16.50
2023-03-04T11:38:09.950Z,16.92
2023-03-04T11:40:43.201Z,17.50
2023-03-04T11:43:18.065Z,17.05
2023-03-04T11:46:11.594Z,17.30
2023-03-04T11:48:50.585Z,15.82
2023-03-04T11:51:25.287Z,15.75
2023-03-04T11:54:02.877Z,15.82
2023-03-04T11:56:37.815Z,15.15
2023-03-04T11:59:23.659Z,14.32
2023-03-04T12:02:02.963Z,16.17
2023-03-04T12:04:43.616Z,16.38
2023-03-04T12:07:25.442Z,16.95
2023-03-04T12:10:05.788Z,14.38
2023-03-04T12:12:47.576Z,17.20
2023-03-04T12:15:22.526Z,14.40
2023-03-04T12:18:04.530Z,15.48
2023-03-04T12:21:08.049Z,15.85
2023-03-04T12:24:10.691Z,13.98
2023-03-04T12:26:43.412Z,15.18
2023-03-04T12:29:17.845Z,14.65
2023-03-04T12:31:47.894Z,17.55
2023-03-04T12:34:31.819Z,17.27
2023-03-04T12:37:21.258Z,17.02
2023-03-04T12:40:16.044Z,16.55
2023-03-04T12:42:59.384Z,17.10
2023-03-04T12:45:31.381Z,16.20
2023-03-04T12:48:07.713Z,15.48
2023-03-04T12:50:43.397Z,17.63
2023-03-04T12:53:22.125Z,18.30
2023-03-04T12:55:53.265Z,18.02
2023-03-04T12:58:25.218Z,17.98
2023-03-04T13:01:05.854Z,20.92
2023-03-04T13:03:41.894Z,16.95
2023-03-04T13:06:21.190Z,16.70
2023-03-04T13:09:00.637Z,17.88
2023-03-04T13:11:44.939Z,16.52
2023-03-04T13:14:27.082Z,18.83
2023-03-04T13:16:57.748Z,17.08
2023-03-04T13:19:52.550Z,15.30
2023-03-04T13:22:47.138Z,35.08
2023-03-04T13:25:42.395Z,21.35
2023-03-04T13:28:24.232Z,20.88
2023-03-04T13:31:18.253Z,18.35
2023-03-04T13:33:58.514Z,20.17
2023-03-04T13:36:35.609Z,17.17
2023-03-04T13:39:22.806Z,22.02
2023-03-04T13:41:53.647Z,17.42
2023-03-04T13:45:01.122Z,19.65
2023-03-04T13:47:48.744Z,21.92
2023-03-04T13:50:37.122Z,21.65
2023-03-04T13:53:42.257Z,19.83
2023-03-04T13:56:25.541Z,18.27
2023-03-04T13:59:03.095Z,19.30
2023-03-04T14:01:33.210Z,18.77
2023-03-04T14:04:11.869Z,16.38
2023-03-04T14:06:44.063Z,20.98
2023-03-04T14:09:15.726Z,19.05
2023-03-04T14:11:45.563Z,19.13
2023-03-04T14:14:16.831Z,21.80
2023-03-04T14:16:50.356Z,21.23
2023-03-04T14:19:25.792Z,22.77
2023-03-04T14:21:54.240Z,20.60
2023-03-04T14:24:23.598Z,21.45
2023-03-04T14:26:52.212Z,18.67
2023-03-04T14:29:23.603Z,20.30
2023-03-04T14:31:52.269Z,24.70
2023-03-04T14:34:26.601Z,26.23
2023-03-04T14:36:54.636Z,26.10
2023-03-04T14:39:25.819Z,22.88
2023-03-04T14:41:55.840Z,21.73
2023-03-04T14:44:36.832Z,26.75
2023-03-04T14:47:14.237Z,23.55
2023-03-04T14:49:44.293Z,22.02
2023-03-04T14:52:33.486Z,20.38
2023-03-04T14:55:10.172Z,20.85
2023-03-04T14:57:39.182Z,26.65
2023-03-04T15:00:25.745Z,22.27
2023-03-04T15:02:56.774Z,23.88
2023-03-04T15:05:29.136Z,25.30
2023-03-04T15:07:59.271Z,23.90
2023-03-04T15:10:30.624Z,23.08
2023-03-04T15:13:01.952Z,25.17
2023-03-04T15:15:42.373Z,23.45
2023-03-04T15:18:22.791Z,24.73
2023-03-04T15:20:57.772Z,25.45
2023-03-04T15:23:26.556Z,28.55
2023-03-04T15:25:56.738Z,24.73
2023-03-04T15:28:26.120Z,25.45
2023-03-04T15:30:54.705Z,29.30
2023-03-04T15:33:22.784Z,24.73
2023-03-04T15:35:57.864Z,23.15
2023-03-04T15:38:27.031Z,23.70
2023-03-04T15:40:56.502Z,27.45
2023-03-04T15:43:25.475Z,24.52
2023-03-04T15:45:54.814Z,26.13
2023-03-04T15:48:23.029Z,29.00
2023-03-04T15:50:55.866Z,27.42
2023-03-04T15:53:29.525Z,25.95
2023-03-04T15:55:57.806Z,26.35
2023-03-04T15:58:26.560Z,24.25
2023-03-04T16:00:54.582Z,25.85
2023-03-04T16:03:23.304Z,23.75
2023-03-04T16:05:53.274Z,29.30
2023-03-04T16:08:25.056Z,26.20
2023-03-04T16:10:55.075Z,27.23
2023-03-04T16:13:25.154Z,27.33
2023-03-04T16:15:53.349Z,30.67
2023-03-04T16:18:21.692Z,26.63
2023-03-04T16:20:51.069Z,26.27
2023-03-04T16:23:23.314Z,33.83
2023-03-04T16:25:55.902Z,25.20
2023-03-04T16:28:24.486Z,26.63
2023-03-04T16:30:52.877Z,22.15
2023-03-04T16:33:21.457Z,24.15
2023-03-04T16:35:51.669Z,26.73
2023-03-04T16:38:25.922Z,25.30
2023-03-04T16:40:56.859Z,25.70
2023-03-04T16:43:26.041Z,22.98
2023-03-04T16:45:54.914Z,25.58
2023-03-04T16:48:23.256Z,26.17
2023-03-04T16:50:51.713Z,26.40
2023-03-04T16:53:28.409Z,24.75
2023-03-04T16:55:59.444Z,27.20
2023-03-04T16:58:27.507Z,22.50
2023-03-04T17:00:56.409Z,25.23
2023-03-04T17:03:24.581Z,26.15
2023-03-04T17:05:52.613Z,24.95
2023-03-04T17:08:20.700Z,28.00
2023-03-04T17:10:48.892Z,25.70
2023-03-04T17:13:18.554Z,21.90
2023-03-04T17:15:46.967Z,22.80
2023-03-04T17:18:15.273Z,23.08
2023-03-04T17:20:43.362Z,25.50
2023-03-04T17:23:11.442Z,30.23
2023-03-04T17:25:39.454Z,27.15
2023-03-04T17:28:07.510Z,23.05
2023-03-04T17:30:37.062Z,23.95
2023-03-04T17:33:05.881Z,24.10
2023-03-04T17:35:34.781Z,29.05
2023-03-04T17:38:02.832Z,22.10
2023-03-04T17:40:30.974Z,26.23
2023-03-04T17:42:59.153Z,25.55
2023-03-04T17:45:27.280Z,23.00
2023-03-04T17:47:56.802Z,23.55
2023-03-04T17:50:24.810Z,25.83
2023-03-04T17:52:52.846Z,27.02
2023-03-04T17:55:21.799Z,21.40
2023-03-04T17:57:52.911Z,24.02
2023-03-04T18:00:22.035Z,25.92
2023-03-04T18:02:50.817Z,25.83
2023-03-04T18:05:20.372Z,19.67
2023-03-04T18:07:48.378Z,25.15
2023-03-04T18:10:16.549Z,31.02
2023-03-04T18:12:44.593Z,28.05
2023-03-04T18:15:12.876Z,25.27
2023-03-04T18:17:42.912Z,22.33
2023-03-04T18:20:12.911Z,25.48
2023-03-04T18:22:43.028Z,26.63
2023-03-04T18:25:12.904Z,24.80
2023-03-04T18:27:41.909Z,23.67
2023-03-04T18:30:11.835Z,30.40
2023-03-04T18:32:51.323Z,27.02
2023-03-04T18:35:20.551Z,23.67
2023-03-04T18:37:50.793Z,26.27
2023-03-04T18:40:19.465Z,23.25
2023-03-04T18:42:47.508Z,22.67
2023-03-04T18:45:16.987Z,27.23
2023-03-04T18:47:49.749Z,29.73
2023-03-04T18:50:18.934Z,29.55
2023-03-04T18:52:47.422Z,26.30
2023-03-04T18:55:18.800Z,24.58
2023-03-04T18:57:55.130Z,23.58
2023-03-04T19:00:25.397Z,26.98
2023-03-04T19:02:57.894Z,26.75
2023-03-04T19:05:28.776Z,24.55
2023-03-04T19:07:57.023Z,25.55
2023-03-04T19:10:27.347Z,20.67
2023-03-04T19:12:57.552Z,26.27
2023-03-04T19:15:25.803Z,27.48
2023-03-04T19:17:54.040Z,25.75
2023-03-04T19:20:22.952Z,28.40
2023-03-04T19:22:51.014Z,24.45
2023-03-04T19:25:19.915Z,29.00
2023-03-04T19:27:51.352Z,24.45
2023-03-04T19:30:20.013Z,24.75
2023-03-04T19:32:49.030Z,30.25
2023-03-04T19:35:17.439Z,22.40
2023-03-04T19:37:45.486Z,24.23
2023-03-04T19:40:14.108Z,24.05
2023-03-04T19:42:42.112Z,20.50
2023-03-04T19:45:11.930Z,27.83
2023-03-04T19:47:40.844Z,25.42
2023-03-04T19:50:12.392Z,24.73
2023-03-04T19:52:40.944Z,22.60
2023-03-04T19:55:10.136Z,25.20
2023-03-04T19:57:38.208Z,21.95
2023-03-04T20:00:07.224Z,24.10
2023-03-04T20:02:36.954Z,29.13
2023-03-04T20:05:05.615Z,26.25
2023-03-04T20:07:33.885Z,23.88
2023-03-04T20:10:02.056Z,24.13
2023-03-04T20:12:31.321Z,23.45
2023-03-04T20:14:59.659Z,26.65
2023-03-04T20:17:27.795Z,24.90
2023-03-04T20:19:57.608Z,25.90
2023-03-04T20:22:25.696Z,26.85
2023-03-04T20:24:54.902Z,24.58
2023-03-04T20:27:22.979Z,23.52
2023-03-04T20:29:51.040Z,20.67
2023-03-04T20:32:19.133Z,24.27
2023-03-04T20:34:48.512Z,23.13
2023-03-04T20:37:17.907Z,24.25
2023-03-04T20:39:46.565Z,22.08
2023-03-04T20:42:14.562Z,24.40
2023-03-04T20:44:42.703Z,23.08
2023-03-04T20:47:11.503Z,24.98
2023-03-04T20:49:39.764Z,24.40
2023-03-04T20:52:07.936Z,25.90
2023-03-04T20:54:41.337Z,22.33
2023-03-04T20:57:10.792Z,25.92
2023-03-04T20:59:39.861Z,21.63
2023-03-04T21:02:09.626Z,25.25
2023-03-04T21:04:37.769Z,26.95
2023-03-04T21:07:05.855Z,20.02
2023-03-04T21:09:34.765Z,21.42
2023-03-04T21:12:04.377Z,21.70
2023-03-04T21:14:33.386Z,21.40
2023-03-04T21:17:03.390Z,22.52
2023-03-04T21:19:33.066Z,24.35
2023-03-04T21:22:02.989Z,32.25
2023-03-04T21:24:32.942Z,21.85
2023-03-04T21:27:02.384Z,25.35
2023-03-04T21:29:31.884Z,25.52
2023-03-04T21:32:16.832Z,28.88
2023-03-04T21:34:51.873Z,22.83
2023-03-04T21:37:19.958Z,22.63
2023-03-04T21:39:48.074Z,25.83
2023-03-04T21:42:16.139Z,31.02
2023-03-04T21:44:49.580Z,27.85
2023-03-04T21:47:18.462Z,25.88
2023-03-04T21:49:47.773Z,22.23
2023-03-04T21:52:15.940Z,28.02
2023-03-04T21:54:44.147Z,25.17
2023-03-04T21:57:13.387Z,25.58
2023-03-04T21:59:41.733Z,33.80
2023-03-04T22:02:16.714Z,29.15
2023-03-04T22:04:44.928Z,28.05
2023-03-04T22:07:13.491Z,26.75
2023-03-04T22:09:41.575Z,26.25
2023-03-04T22:12:09.854Z,22.02
2023-03-04T22:14:38.064Z,25.25
2023-03-04T22:17:06.632Z,25.33
2023-03-04T22:19:36.154Z,26.00
2023-03-04T22:22:04.181Z,32.25
2023-03-04T22:24:32.162Z,28.85
2023-03-04T22:27:00.369Z,23.65
2023-03-04T22:29:28.551Z,28.50
2023-03-04T22:31:56.782Z,25.90
2023-03-04T22:34:25.113Z,25.00
2023-03-04T22:36:54.473Z,29.42
2023-03-04T22:39:23.089Z,26.77
2023-03-04T22:41:51.541Z,29.52
2023-03-04T22:44:19.994Z,27.00
2023-03-04T22:46:48.112Z,31.00
2023-03-04T22:49:16.696Z,24.60
2023-03-04T22:51:45.846Z,27.83
2023-03-04T22:54:16.954Z,24.20
2023-03-04T22:56:45.627Z,29.02
2023-03-04T22:59:13.756Z,28.73
2023-03-04T23:01:42.136Z,27.80
2023-03-04T23:04:10.236Z,26.67
2023-03-04T23:06:38.271Z,24.90
2023-03-04T23:09:06.700Z,27.25
2023-03-04T23:11:37.115Z,24.40
2023-03-04T23:14:07.991Z,24.52
2023-03-04T23:16:39.284Z,24.30
2023-03-04T23:19:08.224Z,26.10
2023-03-04T23:21:38.124Z,27.48
2023-03-04T23:24:08.472Z,23.23
2023-03-04T23:26:39.813Z,25.63
2023-03-04T23:29:09.896Z,27.65
2023-03-04T23:31:38.398Z,24.20
2023-03-04T23:34:07.096Z,26.17
2023-03-04T23:36:37.234Z,23.33
2023-03-04T23:39:06.782Z,32.58
2023-03-04T23:41:35.355Z,27.05
2023-03-04T23:44:05.779Z,26.05
2023-03-04T23:46:34.402Z,28.02
2023-03-04T23:49:02.377Z,28.27
2023-03-04T23:51:31.080Z,25.73
2023-03-04T23:53:59.832Z,27.63
2023-03-04T23:56:29.658Z,24.08
2023-03-04T23:58:59.012Z,25.00
